Time;durP1;ratioP1;P1;durP2;ratioP2;P2;SDS_P1;SDS_P2;PMS_P1;PMS_P2;Temp;Humidity;BMP_temperature;BMP_pressure;BME280_temperature;BME280_humidity;BME280_pressure;Samples;Min_cycle;Max_cycle;Signal;HPM_P1;HPM_P2
2023/10/21 00:02:04;;;;;;;;;;;;;;;;;;6201302;28;19925;-84
2023/10/21 00:05:06;;;;;;;;;;;;;;;;;;6208468;28;19925;-84
2023/10/21 00:08:08;;;;;;;;;;;;;;;;;;6180775;28;19932;-82
2023/10/21 00:11:12;;;;;;;;;;;;;;;;;;6192082;28;19921;-83
2023/10/21 00:14:14;;;;;;;;;;;;;;;;;;6187868;28;20547;-82
2023/10/21 00:17:15;;;;;;;;;;;;;;;;;;6203361;28;20363;-83
2023/10/21 00:20:17;;;;;;;;;;;;;;;;;;6206871;28;19968;-83
2023/10/21 00:23:20;;;;;;;;;;;;;;;;;;6193434;28;19925;-84
2023/10/21 00:26:22;;;;;;;;;;;;;;;;;;6187297;28;19956;-82
2023/10/21 00:29:26;;;;;;;;;;;;;;;;;;6205038;28;19922;-82
2023/10/21 00:32:27;;;;;;;;;;;;;;;;;;6172682;28;20414;-82
2023/10/21 00:35:31;;;;;;;;;;;;;;;;;;6165054;28;20158;-83
2023/10/21 00:38:32;;;;;;;;;;;;;;;;;;6188892;28;19922;-82
2023/10/21 00:41:34;;;;;;;;;;;;;;;;;;6186071;28;19956;-83
2023/10/21 00:44:35;;;;;;;;;;;;;;;;;;6193632;28;19933;-82
2023/10/21 00:47:38;;;;;;;;;;;;;;;;;;6198351;28;19992;-82
2023/10/21 00:50:40;;;;;;;;;;;;;;;;;;6191101;28;19925;-83
2023/10/21 00:53:42;;;;;;;;;;;;;;;;;;6188170;28;20307;-84
2023/10/21 00:56:43;;;;;;;;;;;;;;;;;;6184494;28;20312;-84
2023/10/21 00:59:45;;;;;;;;;;;;;;;;;;6178046;28;19971;-83
2023/10/21 01:02:47;;;;;;;;;;;;;;;;;;6205214;28;19984;-82
2023/10/21 01:05:49;;;;;;;;;;;;;;;;;;6189089;28;19924;-83
2023/10/21 01:08:50;;;;;;;;;;;;;;;;;;6190033;28;19925;-82
2023/10/21 01:11:52;;;;;;;;;;;;;;;;;;6190399;28;19920;-84
2023/10/21 01:14:53;;;;;;;;;;;;;;;;;;6196227;28;19921;-84
2023/10/21 01:17:55;;;;;;;;;;;;;;;;;;6194773;28;20027;-83
2023/10/21 01:20:57;;;;;;;;;;;;;;;;;;6208462;28;19931;-84
2023/10/21 01:23:58;;;;;;;;;;;;;;;;;;6211806;28;19944;-83
2023/10/21 01:27:00;;;;;;;;;;;;;;;;;;6171844;28;20013;-82
2023/10/21 01:30:05;;;;;;;;;;;;;;;;;;6206732;28;20055;-82
2023/10/21 01:33:07;;;;;;;;;;;;;;;;;;6183850;28;19932;-84
2023/10/21 01:36:08;;;;;;;;;;;;;;;;;;6199370;28;19921;-84
2023/10/21 01:39:10;;;;;;;;;;;;;;;;;;6193731;28;20391;-83
2023/10/21 01:42:12;;;;;;;;;;;;;;;;;;6205450;28;19925;-82
2023/10/21 01:45:14;;;;;;;;;;;;;;;;;;6203806;28;19925;-84
2023/10/21 01:48:16;;;;;;;;;;;;;;;;;;6202551;28;19932;-83
2023/10/21 01:51:17;;;;;;;;;;;;;;;;;;6193786;28;19922;-82
2023/10/21 01:54:19;;;;;;;;;;;;;;;;;;6189215;28;19925;-82
2023/10/21 01:57:21;;;;;;;;;;;;;;;;;;6202413;28;19951;-83
2023/10/21 02:00:23;;;;;;;;;;;;;;;;;;6208599;28;20384;-82
2023/10/21 02:03:25;;;;;;;;;;;;;;;;;;6191126;28;19926;-83
2023/10/21 02:06:26;;;;;;;;;;;;;;;;;;6174470;28;20019;-83
2023/10/21 02:09:28;;;;;;;;;;;;;;;;;;6211024;28;19922;-83
2023/10/21 02:12:30;;;;;;;;;;;;;;;;;;6207140;28;19971;-82
2023/10/21 02:15:36;;;;;;;;;;;;;;;;;;6187941;28;19970;-83
2023/10/21 02:18:37;;;;;;;;;;;;;;;;;;6185959;28;20396;-84
2023/10/21 02:21:39;;;;;;;;;;;;;;;;;;6201640;28;20016;-83
2023/10/21 02:24:41;;;;;;;;;;;;;;;;;;6187154;28;20022;-82
2023/10/21 02:27:42;;;;;;;;;;;;;;;;;;6202294;28;19922;-82
2023/10/21 02:30:44;;;;;;;;;;;;;;;;;;6191385;28;20459;-82
2023/10/21 02:33:45;;;;;;;;;;;;;;;;;;6209142;28;20014;-82
2023/10/21 02:36:47;;;;;;;;;;;;;;;;;;6175971;28;19925;-83
2023/10/21 02:39:49;;;;;;;;;;;;;;;;;;6197851;28;20399;-83
2023/10/21 02:42:50;;;;;;;;;;;;;;;;;;6191883;28;20007;-83
2023/10/21 02:45:52;;;;;;;;;;;;;;;;;;6202175;28;19929;-84
2023/10/21 02:48:54;;;;;;;;;;;;;;;;;;6181951;28;19921;-83
2023/10/21 02:51:55;;;;;;;;;;;;;;;;;;6201988;28;20031;-82
2023/10/21 02:54:57;;;;;;;;;;;;;;;;;;6196086;28;20331;-84
2023/10/21 02:57:58;;;;;;;;;;;;;;;;;;6188302;28;19953;-82
2023/10/21 03:01:04;;;;;;;;;;;;;;;;;;6216369;28;20021;-82
2023/10/21 03:04:06;;;;;;;;;;;;;;;;;;6201150;28;19921;-83
2023/10/21 03:07:08;;;;;;;;;;;;;;;;;;6203331;28;19922;-83
2023/10/21 03:10:10;;;;;;;;;;;;;;;;;;6201700;28;20490;-83
2023/10/21 03:13:12;;;;;;;;;;;;;;;;;;6212672;28;19955;-85
2023/10/21 03:16:14;;;;;;;;;;;;;;;;;;6211097;28;19929;-84
2023/10/21 03:19:15;;;;;;;;;;;;;;;;;;6198295;28;19952;-84
2023/10/21 03:22:17;;;;;;;;;;;;;;;;;;6194948;28;19965;-82
2023/10/21 03:28:00;;;;;;;3.08;1.42;;;;;;;;;;6282269;27;1289407;-77
2023/10/21 03:31:06;;;;;;;6.03;1.50;;;;;;;;;;6330130;27;20583;-78
2023/10/21 03:34:07;;;;;;;1.88;1.00;;;;;;;;;;6241799;28;20114;-78
2023/10/21 03:37:09;;;;;;;1.75;1.10;;;;;;;;;;6265548;28;20566;-79
2023/10/21 03:40:11;;;;;;;1.80;1.30;;;;;;;;;;6246391;28;20064;-78
2023/10/21 03:43:13;;;;;;;1.10;1.00;;;;;;;;;;6261478;28;20064;-78
2023/10/21 03:46:15;;;;;;;1.85;1.00;;;;;;;;;;6263203;28;20411;-76
2023/10/21 03:49:17;;;;;;;1.15;1.05;;;;;;;;;;6248999;28;20045;-78
2023/10/21 03:52:19;;;;;;;2.88;1.63;;;;;;;;;;6232332;28;20052;-78
2023/10/21 03:55:21;;;;;;;1.88;1.38;;;;;;;;;;6248515;28;20052;-78
2023/10/21 03:58:23;;;;;;;1.27;1.10;;;;;;;;;;6244694;28;20140;-78
2023/10/21 04:01:24;;;;;;;3.05;1.25;;;;;;;;;;6265257;28;20148;-78
2023/10/21 04:04:26;;;;;;;0.70;0.70;;;;;;;;;;6246504;28;20036;-77
2023/10/21 04:07:28;;;;;;;0.88;0.88;;;;;;;;;;6248562;28;20059;-78
2023/10/21 04:10:31;;;;;;;1.13;0.43;;;;;;;;;;6248728;28;20045;-77
2023/10/21 04:13:33;;;;;;;1.08;0.30;;;;;;;;;;6243530;28;20194;-78
2023/10/21 04:16:35;;;;;;;1.15;0.43;;;;;;;;;;6264832;28;20044;-77
2023/10/21 04:19:37;;;;;;;0.55;0.40;;;;;;;;;;6229932;28;20045;-77
2023/10/21 04:22:39;;;;;;;0.28;0.28;;;;;;;;;;6250260;28;20037;-77
2023/10/21 04:25:41;;;;;;;0.30;0.30;;;;;;;;;;6244598;28;20451;-77
2023/10/21 04:28:42;;;;;;;0.30;0.30;;;;;;;;;;6245213;28;20080;-77
2023/10/21 04:31:44;;;;;;;0.20;0.20;;;;;;;;;;6253209;28;20053;-80
2023/10/21 04:34:46;;;;;;;0.20;0.20;;;;;;;;;;6251811;28;20451;-78
2023/10/21 04:37:48;;;;;;;0.30;0.30;;;;;;;;;;6244139;28;20037;-78
2023/10/21 04:40:49;;;;;;;0.20;0.20;;;;;;;;;;6233743;28;20179;-78
2023/10/21 04:43:51;;;;;;;0.50;0.20;;;;;;;;;;6230513;28;20045;-77
2023/10/21 04:46:53;;;;;;;0.28;0.20;;;;;;;;;;6231665;28;20427;-76
2023/10/21 04:49:55;;;;;;;0.20;0.20;;;;;;;;;;6245723;28;20209;-77
2023/10/21 04:52:57;;;;;;;0.30;0.30;;;;;;;;;;6227999;28;20064;-76
2023/10/21 04:55:59;;;;;;;1.35;0.70;;;;;;;;;;6226716;28;20041;-80
2023/10/21 04:59:00;;;;;;;0.30;0.30;;;;;;;;;;6245761;28;20075;-79
2023/10/21 05:02:05;;;;;;;0.73;0.30;;;;;;;;;;6221976;28;20167;-79
2023/10/21 05:05:07;;;;;;;1.20;0.40;;;;;;;;;;6229548;28;20072;-77
2023/10/21 05:08:09;;;;;;;2.33;0.70;;;;;;;;;;6218668;28;20152;-79
2023/10/21 05:11:10;;;;;;;0.65;0.50;;;;;;;;;;6230570;28;20052;-78
2023/10/21 05:14:12;;;;;;;2.42;0.70;;;;;;;;;;6241812;28;20104;-77
2023/10/21 05:17:14;;;;;;;2.70;1.13;;;;;;;;;;6247353;28;20118;-78
2023/10/21 05:20:17;;;;;;;1.05;0.70;;;;;;;;;;6230460;28;20275;-78
2023/10/21 05:23:19;;;;;;;0.60;0.60;;;;;;;;;;6242818;28;20543;-78
2023/10/21 05:26:20;;;;;;;4.95;0.88;;;;;;;;;;6242761;28;20167;-77
2023/10/21 05:29:22;;;;;;;1.80;0.65;;;;;;;;;;6247422;28;20419;-78
2023/10/21 05:32:24;;;;;;;0.85;0.55;;;;;;;;;;6246904;28;20419;-78
2023/10/21 05:35:25;;;;;;;0.85;0.60;;;;;;;;;;6236803;28;20044;-77
2023/10/21 05:38:27;;;;;;;0.60;0.50;;;;;;;;;;6235618;28;20052;-79
2023/10/21 05:41:29;;;;;;;1.60;0.52;;;;;;;;;;6243947;28;20054;-81
2023/10/21 05:44:30;;;;;;;0.45;0.45;;;;;;;;;;6214828;28;20056;-80
2023/10/21 05:47:49;;;;;;;0.45;0.45;;;;;;;;;;6248358;28;20049;-81
2023/10/21 05:50:51;;;;;;;0.40;0.40;;;;;;;;;;6240429;28;20045;-82
2023/10/21 05:53:53;;;;;;;0.75;0.57;;;;;;;;;;6225897;28;20044;-81
2023/10/21 05:56:55;;;;;;;0.55;0.55;;;;;;;;;;6247621;28;20396;-82
2023/10/21 05:59:56;;;;;;;1.48;0.70;;;;;;;;;;6240172;28;20148;-79
2023/10/21 06:02:58;;;;;;;0.50;0.50;;;;;;;;;;6237939;28;20106;-81
2023/10/21 06:06:00;;;;;;;1.48;0.57;;;;;;;;;;6249168;28;20037;-81
2023/10/21 06:09:03;;;;;;;1.77;0.55;;;;;;;;;;6221235;28;20059;-78
2023/10/21 06:12:06;;;;;;;1.02;0.90;;;;;;;;;;6219966;28;20052;-79
2023/10/21 06:15:08;;;;;;;0.60;0.60;;;;;;;;;;6222854;28;20053;-80
2023/10/21 06:18:10;;;;;;;0.85;0.77;;;;;;;;;;6233648;28;20049;-81
2023/10/21 06:21:12;;;;;;;0.70;0.50;;;;;;;;;;6230663;28;20052;-80
2023/10/21 06:24:17;;;;;;;1.08;0.60;;;;;;;;;;6235467;28;20049;-78
2023/10/21 06:27:21;;;;;;;0.80;0.60;;;;;;;;;;6222050;28;20050;-78
2023/10/21 06:30:26;;;;;;;1.30;0.57;;;;;;;;;;6229849;28;20175;-79
2023/10/21 06:33:28;;;;;;;1.95;0.60;;;;;;;;;;6237766;28;20041;-79
2023/10/21 06:36:30;;;;;;;0.57;0.50;;;;;;;;;;6251820;28;20041;-80
2023/10/21 06:39:33;;;;;;;0.50;0.40;;;;;;;;;;6221943;28;20064;-81
2023/10/21 06:42:35;;;;;;;0.82;0.50;;;;;;;;;;6227186;28;20072;-82
2023/10/21 06:45:38;;;;;;;0.63;0.47;;;;;;;;;;6228865;28;20399;-83
2023/10/21 06:48:41;;;;;;;1.05;0.30;;;;;;;;;;6245314;28;20041;-81
2023/10/21 06:51:42;;;;;;;1.45;0.30;;;;;;;;;;6236928;28;20052;-78
2023/10/21 06:54:44;;;;;;;1.48;0.70;;;;;;;;;;6236786;28;20514;-82
2023/10/21 06:57:46;;;;;;;1.42;0.82;;;;;;;;;;6229858;28;20188;-82
2023/10/21 07:00:48;;;;;;;2.08;0.77;;;;;;;;;;6234733;28;20176;-82
2023/10/21 07:03:50;;;;;;;2.72;0.70;;;;;;;;;;6221415;28;20045;-82
2023/10/21 07:06:51;;;;;;;2.17;0.82;;;;;;;;;;6234024;28;20052;-79
2023/10/21 07:09:53;;;;;;;1.30;0.60;;;;;;;;;;6232601;28;20490;-78
2023/10/21 07:12:56;;;;;;;1.63;0.47;;;;;;;;;;6232424;28;20052;-81
2023/10/21 07:16:06;;;;;;;0.55;0.55;;;;;;;;;;6235318;28;20052;-81
2023/10/21 07:19:08;;;;;;;0.60;0.40;;;;;;;;;;6230645;28;20422;-81
2023/10/21 07:22:09;;;;;;;0.50;0.50;;;;;;;;;;6215501;28;20049;-81
2023/10/21 07:25:15;;;;;;;0.80;0.60;;;;;;;;;;6230057;28;20052;-80
2023/10/21 07:28:17;;;;;;;;;;;;;;;;;;6234304;28;20056;-80
2023/10/21 07:31:19;;;;;;;0.55;0.32;;;;;;;;;;6216992;28;19921;-82
2023/10/21 07:34:22;;;;;;;0.43;0.40;;;;;;;;;;6227834;28;20090;-82
2023/10/21 07:37:23;;;;;;;0.40;0.30;;;;;;;;;;6250177;28;20044;-82
2023/10/21 07:40:27;;;;;;;1.48;0.45;;;;;;;;;;6229718;28;20040;-83
2023/10/21 07:43:29;;;;;;;0.88;0.30;;;;;;;;;;6229670;28;20062;-80
2023/10/21 07:46:30;;;;;;;0.40;0.40;;;;;;;;;;6228282;28;20068;-82
2023/10/21 07:49:32;;;;;;;2.10;1.00;;;;;;;;;;6252804;28;20041;-82
2023/10/21 07:52:37;;;;;;;1.35;0.45;;;;;;;;;;6213490;28;20380;-80
2023/10/21 07:55:40;;;;;;;0.40;0.40;;;;;;;;;;6239535;28;20041;-79
2023/10/21 07:58:42;;;;;;;0.40;0.40;;;;;;;;;;6242099;28;20574;-80
2023/10/21 08:01:44;;;;;;;0.80;0.40;;;;;;;;;;6215368;28;20529;-80
2023/10/21 08:04:45;;;;;;;0.35;0.35;;;;;;;;;;6226259;28;20124;-79
2023/10/21 08:07:47;;;;;;;1.33;0.50;;;;;;;;;;6237332;28;20056;-81
2023/10/21 08:10:49;;;;;;;1.48;0.45;;;;;;;;;;6233159;28;20303;-81
2023/10/21 08:13:51;;;;;;;0.40;0.40;;;;;;;;;;6232132;28;20052;-81
2023/10/21 08:16:53;;;;;;;0.47;0.30;;;;;;;;;;6229541;28;20045;-79
2023/10/21 08:19:56;;;;;;;0.45;0.40;;;;;;;;;;6216894;28;20045;-82
2023/10/21 08:22:58;;;;;;;1.05;0.30;;;;;;;;;;6246566;28;20071;-81
2023/10/21 08:26:00;;;;;;;1.02;0.30;;;;;;;;;;6223906;28;20134;-80
2023/10/21 08:29:02;;;;;;;0.53;0.30;;;;;;;;;;6225898;28;20048;-81
2023/10/21 08:32:05;;;;;;;0.65;0.32;;;;;;;;;;6235373;28;20049;-80
2023/10/21 08:35:07;;;;;;;1.20;0.23;;;;;;;;;;6228739;28;20036;-81
2023/10/21 08:38:09;;;;;;;0.30;0.22;;;;;;;;;;6226568;28;20392;-81
2023/10/21 08:41:14;;;;;;;0.35;0.35;;;;;;;;;;6247752;28;20049;-80
2023/10/21 08:44:17;;;;;;;0.47;0.40;;;;;;;;;;6234651;28;20084;-78
2023/10/21 08:47:21;;;;;;;1.05;0.32;;;;;;;;;;6245561;28;20107;-81
2023/10/21 08:50:24;;;;;;;0.22;0.22;;;;;;;;;;6254847;28;20052;-78
2023/10/21 08:53:26;;;;;;;;;;;;;;;;;;6240837;28;20111;-77
2023/10/21 08:56:28;;;;;;;0.90;0.22;;;;;;;;;;6213078;28;20578;-77
2023/10/21 08:59:29;;;;;;;3.00;0.40;;;;;;;;;;6228736;28;20052;-80
2023/10/21 09:02:31;;;;;;;0.20;0.17;;;;;;;;;;6248015;28;20179;-83
2023/10/21 09:05:34;;;;;;;0.35;0.20;;;;;;;;;;6244072;28;20041;-82
2023/10/21 09:08:37;;;;;;;0.82;0.38;;;;;;;;;;6231854;28;20041;-80
2023/10/21 09:11:39;;;;;;;;;;;;;;;;;;6242002;28;20056;-81
2023/10/21 09:14:52;;;;;;;0.65;0.40;;;;;;;;;;6242497;28;19927;-82
2023/10/21 09:17:56;;;;;;;2.05;0.40;;;;;;;;;;6232976;28;20048;-81
2023/10/21 09:20:58;;;;;;;1.75;0.40;;;;;;;;;;6221466;28;20125;-82
2023/10/21 09:24:02;;;;;;;1.30;0.50;;;;;;;;;;6224256;28;20114;-81
2023/10/21 09:27:04;;;;;;;1.60;0.68;;;;;;;;;;6209976;28;20048;-82
2023/10/21 09:30:06;;;;;;;1.33;0.70;;;;;;;;;;6215467;28;20033;-81
2023/10/21 09:33:09;;;;;;;3.13;1.60;;;;;;;;;;6217019;28;20155;-80
2023/10/21 09:36:11;;;;;;;1.55;0.85;;;;;;;;;;6210975;28;20040;-81
2023/10/21 09:39:25;;;;;;;3.50;1.25;;;;;;;;;;6239715;28;20087;-79
2023/10/21 09:42:27;;;;;;;2.80;1.35;;;;;;;;;;6205911;28;20041;-79
2023/10/21 09:45:29;;;;;;;0.43;0.30;;;;;;;;;;6210385;28;20064;-79
2023/10/21 09:48:39;;;;;;;0.87;0.40;;;;;;;;;;6225379;28;20045;-80
2023/10/21 09:51:45;;;;;;;0.85;0.30;;;;;;;;;;6223969;28;20091;-81
2023/10/21 09:54:53;;;;;;;1.50;0.30;;;;;;;;;;6233126;28;20069;-79
2023/10/21 09:57:57;;;;;;;0.88;0.30;;;;;;;;;;6228686;28;20064;-78
2023/10/21 10:01:02;;;;;;;0.77;0.50;;;;;;;;;;6221717;28;20450;-79
2023/10/21 10:04:05;;;;;;;1.85;0.30;;;;;;;;;;6217125;28;20052;-80
2023/10/21 10:07:07;;;;;;;0.40;0.30;;;;;;;;;;6224655;28;20064;-82
2023/10/21 10:10:20;;;;;;;0.50;0.35;;;;;;;;;;6223878;28;20038;-78
2023/10/21 10:13:22;;;;;;;0.80;0.40;;;;;;;;;;6235265;28;20682;-78
2023/10/21 10:16:25;;;;;;;4.05;0.60;;;;;;;;;;6217953;28;21000;-79
2023/10/21 10:19:40;;;;;;;0.60;0.35;;;;;;;;;;6228601;28;21000;-79
2023/10/21 10:22:42;;;;;;;3.30;0.70;;;;;;;;;;6246474;28;20094;-78
2023/10/21 10:25:54;;;;;;;1.23;0.30;;;;;;;;;;6219536;28;20128;-80
2023/10/21 10:28:57;;;;;;;0.55;0.40;;;;;;;;;;6221689;28;20051;-80
2023/10/21 10:32:14;;;;;;;;;;;;;;;;;;6225061;28;20064;-82
2023/10/21 10:35:32;;;;;;;0.35;0.32;;;;;;;;;;6223802;28;19960;-80
2023/10/21 10:38:44;;;;;;;1.95;0.65;;;;;;;;;;6214706;28;20514;-80
2023/10/21 10:41:50;;;;;;;0.90;0.20;;;;;;;;;;6228341;28;20052;-80
2023/10/21 10:44:53;;;;;;;0.40;0.40;;;;;;;;;;6227764;28;20167;-81
2023/10/21 10:48:00;;;;;;;0.63;0.30;;;;;;;;;;6226978;28;20143;-82
2023/10/21 10:51:17;;;;;;;0.40;0.40;;;;;;;;;;6233824;28;20494;-78
2023/10/21 10:54:19;;;;;;;2.70;0.50;;;;;;;;;;6234233;28;20056;-79
2023/10/21 10:57:22;;;;;;;2.30;0.40;;;;;;;;;;6245341;28;20043;-82
2023/10/21 11:00:25;;;;;;;1.75;0.60;;;;;;;;;;6214582;28;20053;-80
2023/10/21 11:03:29;;;;;;;3.72;0.50;;;;;;;;;;6214044;28;20045;-81
2023/10/21 11:06:36;;;;;;;0.82;0.35;;;;;;;;;;6231202;28;20043;-80
2023/10/21 11:09:38;;;;;;;1.38;0.40;;;;;;;;;;6242523;28;20136;-82
2023/10/21 11:12:40;;;;;;;1.25;0.40;;;;;;;;;;6241751;28;20130;-78
2023/10/21 11:15:54;;;;;;;2.25;0.30;;;;;;;;;;6220594;28;20506;-79
2023/10/21 11:18:57;;;;;;;0.75;0.40;;;;;;;;;;6243688;28;20127;-80
2023/10/21 11:21:59;;;;;;;2.92;0.43;;;;;;;;;;6231809;28;20048;-80
2023/10/21 11:25:03;;;;;;;0.47;0.30;;;;;;;;;;6243204;28;20042;-81
2023/10/21 11:28:05;;;;;;;0.70;0.40;;;;;;;;;;6241592;28;20045;-80
2023/10/21 11:31:08;;;;;;;1.83;0.30;;;;;;;;;;6226691;28;20045;-81
2023/10/21 11:34:12;;;;;;;1.63;0.40;;;;;;;;;;6238183;28;20053;-81
2023/10/21 11:37:14;;;;;;;2.05;0.40;;;;;;;;;;6241621;28;20045;-77
2023/10/21 11:40:17;;;;;;;0.90;0.38;;;;;;;;;;6231605;28;20053;-81
2023/10/21 11:43:19;;;;;;;1.58;0.30;;;;;;;;;;6247609;28;20045;-81
2023/10/21 11:46:20;;;;;;;2.83;0.50;;;;;;;;;;6230910;28;20070;-79
2023/10/21 11:49:24;;;;;;;2.35;0.40;;;;;;;;;;6238422;28;20098;-80
2023/10/21 11:52:27;;;;;;;3.05;0.40;;;;;;;;;;6229703;28;20056;-77
2023/10/21 12:05:48;;;;;;;0.95;0.60;;;;;;;;;;6252605;28;20060;-78
2023/10/21 12:12:22;;;;;;;0.82;0.40;;;;;;;;;;6244469;28;20041;-81
2023/10/21 12:15:49;;;;;;;2.45;0.50;;;;;;;;;;6229723;28;20053;-78
2023/10/21 12:32:36;;;;;;;1.23;0.50;;;;;;;;;;6251468;28;20049;-79
2023/10/21 12:38:38;;;;;;;4.43;0.80;;;;;;;;;;6247718;28;20563;-81
2023/10/21 12:41:41;;;;;;;2.00;0.90;;;;;;;;;;6232762;28;20052;-81
2023/10/21 12:44:51;;;;;;;1.15;0.70;;;;;;;;;;6238737;28;20557;-81
2023/10/21 12:47:57;;;;;;;2.28;0.77;;;;;;;;;;6255796;28;20052;-82
2023/10/21 12:51:03;;;;;;;2.50;0.93;;;;;;;;;;6237836;28;20637;-79
2023/10/21 12:54:09;;;;;;;1.00;0.60;;;;;;;;;;6237093;28;20045;-81
2023/10/21 12:57:15;;;;;;;2.13;0.80;;;;;;;;;;6220807;28;20046;-80
2023/10/21 13:00:20;;;;;;;1.37;0.50;;;;;;;;;;6246809;28;20060;-81
2023/10/21 13:03:22;;;;;;;3.90;0.73;;;;;;;;;;6255330;28;20511;-77
2023/10/21 13:06:24;;;;;;;1.42;0.50;;;;;;;;;;6234045;28;20479;-80
2023/10/21 13:09:28;;;;;;;1.33;0.75;;;;;;;;;;6231766;28;20403;-79
2023/10/21 13:12:30;;;;;;;1.25;0.82;;;;;;;;;;6220123;28;20135;-79
2023/10/21 13:15:32;;;;;;;3.30;0.77;;;;;;;;;;6222202;28;20281;-79
2023/10/21 13:18:34;;;;;;;2.00;0.77;;;;;;;;;;6231163;28;20048;-77
2023/10/21 13:21:36;;;;;;;2.33;0.80;;;;;;;;;;6233505;28;20455;-81
2023/10/21 13:24:38;;;;;;;1.15;0.45;;;;;;;;;;6232274;28;20037;-78
2023/10/21 13:27:40;;;;;;;1.30;0.45;;;;;;;;;;6243090;28;20411;-80
2023/10/21 13:30:44;;;;;;;1.08;0.57;;;;;;;;;;6224149;28;20045;-79
2023/10/21 13:33:46;;;;;;;2.30;0.65;;;;;;;;;;6214365;28;20095;-80
2023/10/21 13:36:48;;;;;;;2.60;0.60;;;;;;;;;;6218065;28;20511;-77
2023/10/21 13:39:50;;;;;;;2.10;0.65;;;;;;;;;;6233381;28;20056;-78
2023/10/21 13:42:51;;;;;;;2.72;0.60;;;;;;;;;;6242511;28;20041;-81
2023/10/21 13:45:53;;;;;;;4.18;0.70;;;;;;;;;;6244521;28;20422;-81
2023/10/21 13:48:57;;;;;;;2.03;0.60;;;;;;;;;;6220050;28;20042;-81
2023/10/21 13:51:58;;;;;;;2.15;0.60;;;;;;;;;;6216315;28;20144;-79
2023/10/21 13:55:03;;;;;;;3.88;0.50;;;;;;;;;;6205450;28;20045;-81
2023/10/21 13:58:05;;;;;;;2.00;0.70;;;;;;;;;;6225981;28;20110;-81
2023/10/21 14:01:12;;;;;;;2.92;0.85;;;;;;;;;;6225703;28;20586;-81
2023/10/21 14:04:14;;;;;;;3.28;0.60;;;;;;;;;;6216735;28;20325;-82
2023/10/21 14:07:16;;;;;;;1.85;0.90;;;;;;;;;;6245662;28;20187;-82
2023/10/21 14:10:19;;;;;;;1.90;0.80;;;;;;;;;;6230721;28;20144;-79
2023/10/21 14:13:23;;;;;;;2.97;0.87;;;;;;;;;;6236118;28;20056;-82
2023/10/21 14:16:25;;;;;;;5.90;0.80;;;;;;;;;;6231046;28;20076;-80
2023/10/21 14:19:28;;;;;;;3.00;0.70;;;;;;;;;;6249529;28;20067;-82
2023/10/21 14:22:30;;;;;;;3.30;0.80;;;;;;;;;;6216024;28;20126;-82
2023/10/21 14:25:38;;;;;;;2.35;0.80;;;;;;;;;;6243502;28;20041;-82
2023/10/21 14:28:40;;;;;;;4.00;0.77;;;;;;;;;;6229773;28;20100;-82
2023/10/21 14:31:44;;;;;;;6.23;1.00;;;;;;;;;;6219351;28;20140;-81
2023/10/21 14:34:48;;;;;;;2.17;0.60;;;;;;;;;;6245240;28;20407;-82
2023/10/21 14:37:50;;;;;;;3.50;0.70;;;;;;;;;;6243783;28;20038;-82
2023/10/21 14:40:52;;;;;;;2.30;0.75;;;;;;;;;;6232793;28;20068;-80
2023/10/21 14:43:54;;;;;;;2.75;0.80;;;;;;;;;;6246568;28;20133;-80
2023/10/21 14:46:55;;;;;;;4.63;0.90;;;;;;;;;;6236338;28;20052;-82
2023/10/21 14:49:58;;;;;;;2.00;0.80;;;;;;;;;;6244482;28;20068;-81
2023/10/21 14:53:03;;;;;;;4.05;0.90;;;;;;;;;;6218465;28;20045;-82
2023/10/21 14:56:05;;;;;;;2.47;1.10;;;;;;;;;;6243736;28;20049;-82
2023/10/21 14:59:07;;;;;;;4.97;1.10;;;;;;;;;;6249918;28;20052;-81
2023/10/21 15:02:09;;;;;;;2.63;1.10;;;;;;;;;;6250224;28;20063;-82
2023/10/21 15:05:11;;;;;;;3.13;0.90;;;;;;;;;;6238454;28;20041;-83
2023/10/21 15:08:14;;;;;;;1.95;0.90;;;;;;;;;;6234735;28;20040;-81
2023/10/21 15:11:16;;;;;;;4.38;1.00;;;;;;;;;;6237243;28;20130;-82
2023/10/21 15:14:20;;;;;;;4.43;1.10;;;;;;;;;;6229696;28;20072;-80
2023/10/21 15:17:45;;;;;;;1.27;0.80;;;;;;;;;;6213672;28;20538;-79
2023/10/21 15:20:47;;;;;;;3.22;1.48;;;;;;;;;;6227465;28;20136;-80
2023/10/21 15:23:48;;;;;;;2.78;1.98;;;;;;;;;;6231064;28;20690;-78
2023/10/21 15:26:51;;;;;;;5.05;2.83;;;;;;;;;;6217235;28;20056;-77
2023/10/21 15:29:54;;;;;;;12.13;5.55;;;;;;;;;;6242020;28;20056;-79
2023/10/21 15:32:56;;;;;;;15.98;10.82;;;;;;;;;;6234831;28;20053;-78
2023/10/21 15:35:58;;;;;;;19.83;11.35;;;;;;;;;;6246554;28;20568;-77
2023/10/21 15:39:01;;;;;;;6.57;3.70;;;;;;;;;;6235049;28;20134;-78
2023/10/21 15:42:03;;;;;;;2.58;1.75;;;;;;;;;;6221663;28;20509;-76
2023/10/21 15:45:06;;;;;;;2.88;1.75;;;;;;;;;;6221029;28;20052;-76
2023/10/21 15:48:08;;;;;;;2.40;1.10;;;;;;;;;;6227120;28;20144;-77
2023/10/21 15:51:12;;;;;;;6.25;1.67;;;;;;;;;;6242905;28;20072;-77
2023/10/21 15:54:14;;;;;;;4.05;2.70;;;;;;;;;;6216682;28;20526;-78
2023/10/21 15:57:15;;;;;;;7.35;2.78;;;;;;;;;;6232492;28;20509;-77
2023/10/21 16:00:19;;;;;;;5.78;2.58;;;;;;;;;;6225010;28;20462;-78
2023/10/21 16:03:21;;;;;;;3.20;2.30;;;;;;;;;;6228475;28;20809;-80
2023/10/21 16:06:24;;;;;;;6.95;3.38;;;;;;;;;;6223867;28;20126;-78
2023/10/21 16:09:28;;;;;;;3.72;1.67;;;;;;;;;;6208724;28;20048;-79
2023/10/21 16:12:30;;;;;;;10.70;5.97;;;;;;;;;;6244241;28;20050;-79
2023/10/21 16:15:32;;;;;;;7.20;4.53;;;;;;;;;;6244177;28;20041;-79
2023/10/21 16:18:34;;;;;;;4.82;2.83;;;;;;;;;;6228686;28;20049;-80
2023/10/21 16:21:36;;;;;;;22.98;9.77;;;;;;;;;;6229044;28;20053;-79
2023/10/21 16:24:39;;;;;;;6.90;3.85;;;;;;;;;;6244793;28;20077;-77
2023/10/21 16:27:40;;;;;;;1.95;1.45;;;;;;;;;;6235623;28;20033;-79
2023/10/21 16:30:42;;;;;;;3.10;1.30;;;;;;;;;;6219020;28;20048;-78
2023/10/21 16:33:44;;;;;;;3.50;1.15;;;;;;;;;;6254380;28;20183;-81
2023/10/21 16:36:46;;;;;;;2.85;1.20;;;;;;;;;;6249401;28;20131;-78
2023/10/21 16:39:48;;;;;;;4.32;1.50;;;;;;;;;;6257613;28;20782;-79
2023/10/21 16:42:50;;;;;;;4.68;1.85;;;;;;;;;;6246876;28;20045;-79
2023/10/21 16:53:09;;;;;;;2.33;1.30;;;;;;;;;;6935194;24;19930;-89
2023/10/21 16:56:11;;;;;;;3.17;1.33;;;;;;;;;;5913672;30;20134;-87
2023/10/21 16:59:15;;;;;;;1.45;1.30;;;;;;;;;;5875281;30;20097;-89
2023/10/21 17:02:20;;;;;;;3.13;1.30;;;;;;;;;;5894414;30;20168;-89
2023/10/21 17:05:22;;;;;;;6.93;2.78;;;;;;;;;;5842141;30;20068;-88
2023/10/21 17:08:24;;;;;;;13.52;7.75;;;;;;;;;;5847141;30;20062;-86
2023/10/21 17:11:26;;;;;;;12.67;7.53;;;;;;;;;;5878823;30;20732;-88
2023/10/21 17:14:28;;;;;;;9.65;4.68;;;;;;;;;;5905146;29;20055;-87
2023/10/21 17:17:30;;;;;;;5.57;2.50;;;;;;;;;;5921711;29;20047;-89
2023/10/21 17:20:31;;;;;;;6.82;2.30;;;;;;;;;;5939091;29;20047;-87
2023/10/21 17:23:33;;;;;;;4.68;2.35;;;;;;;;;;5923666;30;20498;-89
2023/10/21 17:26:35;;;;;;;3.97;2.28;;;;;;;;;;5943831;29;20058;-87
2023/10/21 17:29:37;;;;;;;6.60;3.10;;;;;;;;;;5942203;30;20051;-86
2023/10/21 17:32:39;;;;;;;5.60;2.90;;;;;;;;;;5943931;29;20106;-87
2023/10/21 17:35:41;;;;;;;5.95;3.00;;;;;;;;;;5933800;29;20047;-87
2023/10/21 17:38:43;;;;;;;24.45;11.15;;;;;;;;;;5930236;29;20059;-87
2023/10/21 17:41:45;;;;;;;33.08;15.60;;;;;;;;;;5944021;29;20061;-88
2023/10/21 17:44:47;;;;;;;11.52;7.65;;;;;;;;;;5928435;29;20112;-88
2023/10/21 17:47:49;;;;;;;11.77;6.82;;;;;;;;;;5934353;29;20077;-88
2023/10/21 17:50:51;;;;;;;9.32;5.88;;;;;;;;;;5917526;30;20051;-88
2023/10/21 17:53:52;;;;;;;9.60;4.25;;;;;;;;;;5927622;30;20054;-88
2023/10/21 17:56:54;;;;;;;8.05;2.40;;;;;;;;;;5919436;30;20043;-87
2023/10/21 17:59:59;;;;;;;3.35;2.00;;;;;;;;;;5943402;29;20497;-88
2023/10/21 18:03:02;;;;;;;3.58;2.00;;;;;;;;;;5924982;29;20047;-90
2023/10/21 18:06:04;;;;;;;9.52;2.10;;;;;;;;;;5938890;29;20126;-87
2023/10/21 18:09:07;;;;;;;5.45;3.00;;;;;;;;;;5927451;30;20075;-88
2023/10/21 18:12:09;;;;;;;6.23;3.10;;;;;;;;;;5927820;29;20410;-87
2023/10/21 18:15:10;;;;;;;3.63;2.35;;;;;;;;;;5911494;29;20054;-87
2023/10/21 18:18:12;;;;;;;3.38;1.80;;;;;;;;;;5936017;30;20048;-87
2023/10/21 18:21:14;;;;;;;2.70;1.63;;;;;;;;;;5928261;29;20505;-87
2023/10/21 18:24:16;;;;;;;3.92;1.70;;;;;;;;;;5937225;30;20047;-88
2023/10/21 18:27:19;;;;;;;3.20;1.80;;;;;;;;;;5920321;29;20124;-88
2023/10/21 18:30:21;;;;;;;8.10;2.30;;;;;;;;;;5932767;29;20039;-87
2023/10/21 18:33:23;;;;;;;4.38;2.40;;;;;;;;;;5920808;30;20060;-86
2023/10/21 18:36:25;;;;;;;4.82;2.40;;;;;;;;;;5926608;29;20061;-87
2023/10/21 18:39:27;;;;;;;8.48;3.50;;;;;;;;;;5933099;29;20051;-88
2023/10/21 18:42:28;;;;;;;6.40;3.60;;;;;;;;;;5909748;29;20055;-86
2023/10/21 18:45:30;;;;;;;8.52;3.60;;;;;;;;;;5920783;30;20600;-87
2023/10/21 18:48:32;;;;;;;10.60;3.67;;;;;;;;;;5914442;29;20051;-87
2023/10/21 18:51:34;;;;;;;5.38;2.53;;;;;;;;;;5915240;29;20051;-85
2023/10/21 18:54:36;;;;;;;3.85;1.98;;;;;;;;;;5929456;29;20055;-86
2023/10/21 18:57:37;;;;;;;7.88;1.80;;;;;;;;;;5931868;29;20517;-87
2023/10/21 19:00:40;;;;;;;13.07;2.13;;;;;;;;;;5927429;30;20074;-86
2023/10/21 19:03:42;;;;;;;3.70;1.40;;;;;;;;;;5933254;29;20062;-87
2023/10/21 19:06:44;;;;;;;4.60;1.63;;;;;;;;;;5934678;29;20496;-88
2023/10/21 19:09:46;;;;;;;6.38;4.10;;;;;;;;;;5932057;29;20420;-88
2023/10/21 19:12:48;;;;;;;4.43;1.73;;;;;;;;;;5930005;29;20047;-87
2023/10/21 19:15:50;;;;;;;2.92;1.35;;;;;;;;;;5919258;30;20067;-86
2023/10/21 19:18:52;;;;;;;4.90;2.10;;;;;;;;;;5919137;29;20139;-89
2023/10/21 19:21:54;;;;;;;5.65;3.60;;;;;;;;;;5928577;30;20539;-86